createdAt,value
2019-02-10T00:01:59.662Z,62.84
2019-02-10T00:07:01.218Z,63.10
2019-02-10T00:12:04.413Z,63.11
2019-02-10T00:17:06.661Z,63.14
2019-02-10T00:22:08.326Z,63.33
2019-02-10T00:27:09.880Z,63.51
2019-02-10T00:32:11.643Z,63.31
2019-02-10T00:37:13.190Z,63.22
2019-02-10T00:42:15.023Z,63.02
2019-02-10T00:47:16.585Z,62.79
2019-02-10T00:52:18.350Z,62.86
2019-02-10T00:57:20.086Z,62.75
2019-02-10T01:02:21.632Z,63.02
2019-02-10T01:07:23.297Z,62.72
2019-02-10T01:12:25.480Z,63.23
2019-02-10T01:17:27.118Z,62.98
2019-02-10T01:22:28.684Z,63.40
2019-02-10T01:27:30.246Z,63.58
2019-02-10T01:32:31.807Z,63.58
2019-02-10T01:37:33.408Z,63.72
2019-02-10T01:42:35.016Z,64.05
2019-02-10T01:47:36.726Z,64.08
2019-02-10T01:52:38.437Z,64.08
2019-02-10T01:57:40.660Z,64.28
2019-02-10T02:02:42.314Z,64.47
2019-02-10T02:07:45.798Z,64.58
2019-02-10T02:12:48.169Z,64.63
2019-02-10T02:17:50.131Z,64.87
2019-02-10T02:22:51.745Z,64.89
2019-02-10T02:27:53.443Z,65.01
2019-02-10T02:32:55.113Z,65.08
2019-02-10T02:37:56.674Z,65.24
2019-02-10T02:42:58.231Z,65.29
2019-02-10T02:48:00.026Z,65.17
2019-02-10T02:53:01.707Z,65.14
2019-02-10T02:58:03.467Z,64.99
2019-02-10T03:03:05.024Z,65.05
2019-02-10T03:08:06.597Z,65.21
2019-02-10T03:13:08.153Z,65.52
2019-02-10T03:18:09.925Z,65.74
2019-02-10T03:23:12.693Z,66.13
2019-02-10T03:28:14.327Z,66.49
2019-02-10T03:33:15.891Z,66.66
2019-02-10T03:38:17.448Z,66.76
2019-02-10T03:43:19.033Z,66.80
2019-02-10T03:48:20.631Z,66.89
2019-02-10T03:53:22.226Z,67.23
2019-02-10T03:58:23.871Z,67.23
2019-02-10T04:03:25.424Z,67.30
2019-02-10T04:08:27.036Z,67.16
2019-02-10T04:13:28.802Z,67.28
2019-02-10T04:18:30.475Z,67.37
2019-02-10T04:23:32.050Z,67.41
2019-02-10T04:28:33.823Z,67.41
2019-02-10T04:33:35.383Z,67.29
2019-02-10T04:38:37.300Z,67.42
2019-02-10T04:43:38.858Z,67.20
2019-02-10T04:48:40.449Z,67.19
2019-02-10T04:53:42.023Z,67.09
2019-02-10T04:58:43.740Z,67.07
2019-02-10T05:03:45.316Z,67.06
2019-02-10T05:08:46.944Z,67.20
2019-02-10T05:13:48.497Z,66.94
2019-02-10T05:18:50.312Z,66.79
2019-02-10T05:23:51.880Z,66.67
2019-02-10T05:28:53.436Z,66.37
2019-02-10T05:33:54.989Z,66.04
2019-02-10T05:38:56.605Z,65.90
2019-02-10T05:43:58.161Z,65.67
2019-02-10T05:49:00.879Z,65.45
2019-02-10T05:54:03.103Z,65.52
2019-02-10T05:59:04.720Z,65.50
2019-02-10T06:04:06.281Z,65.35
2019-02-10T06:09:07.889Z,65.01
2019-02-10T06:14:09.453Z,64.71
2019-02-10T06:19:11.055Z,64.54
2019-02-10T06:24:12.608Z,64.68
2019-02-10T06:29:14.159Z,64.42
2019-02-10T06:34:15.760Z,63.89
2019-02-10T06:39:17.327Z,62.44
2019-02-10T06:44:18.951Z,59.95
2019-02-10T06:49:20.530Z,57.95
2019-02-10T06:54:22.087Z,55.97
2019-02-10T06:59:31.442Z,54.86
2019-02-10T07:04:32.999Z,53.45
2019-02-10T07:09:34.570Z,53.53
2019-02-10T07:14:36.316Z,54.44
2019-02-10T07:20:26.651Z,54.99
2019-02-10T07:25:43.741Z,53.90
2019-02-10T07:30:56.171Z,49.99
2019-02-10T07:36:18.044Z,48.45
2019-02-10T07:41:46.889Z,47.07
2019-02-10T07:47:26.148Z,46.44
2019-02-10T07:52:51.741Z,45.70
2019-02-10T07:58:07.920Z,45.14
2019-02-10T08:03:39.783Z,45.12
2019-02-10T08:08:47.060Z,44.25
2019-02-10T08:14:12.350Z,44.89
2019-02-10T08:19:28.768Z,43.51
2019-02-10T08:24:53.157Z,43.51
2019-02-10T08:30:09.530Z,43.13
2019-02-10T08:35:39.412Z,43.20
2019-02-10T08:41:10.552Z,43.01
2019-02-10T08:46:29.773Z,43.16
2019-02-10T08:52:15.382Z,41.54
2019-02-10T08:57:16.949Z,40.90
2019-02-10T09:02:18.510Z,41.61
2019-02-10T09:07:20.135Z,41.80
2019-02-10T09:12:21.985Z,42.18
2019-02-10T09:17:23.637Z,41.29
2019-02-10T09:22:25.397Z,41.21
2019-02-10T09:27:26.974Z,41.92
2019-02-10T09:32:28.536Z,43.27
2019-02-10T09:37:30.094Z,43.46
2019-02-10T09:42:31.665Z,44.61
2019-02-10T09:47:33.228Z,45.21
2019-02-10T09:52:34.822Z,45.10
2019-02-10T09:57:36.406Z,44.91
2019-02-10T10:02:38.024Z,44.12
2019-02-10T10:07:39.970Z,41.58
2019-02-10T10:12:41.557Z,39.73
2019-02-10T10:17:44.334Z,38.97
2019-02-10T10:22:46.285Z,36.29
2019-02-10T10:27:47.915Z,34.92
2019-02-10T10:32:49.581Z,34.17
2019-02-10T10:37:51.279Z,33.32
2019-02-10T10:42:52.869Z,31.52
2019-02-10T10:47:54.477Z,31.46
2019-02-10T10:52:56.084Z,31.29
2019-02-10T10:57:57.654Z,29.64
2019-02-10T11:03:01.370Z,30.43
2019-02-10T11:08:03.176Z,29.48
2019-02-10T11:13:04.730Z,30.28
2019-02-10T11:18:06.490Z,29.53
2019-02-10T11:23:08.270Z,30.05
2019-02-10T11:28:09.848Z,30.46
2019-02-10T11:33:11.534Z,33.23
2019-02-10T11:38:13.207Z,33.86
2019-02-10T11:43:14.761Z,33.30
2019-02-10T11:48:16.325Z,33.71
2019-02-10T11:53:18.377Z,34.33
2019-02-10T11:58:20.147Z,35.37
2019-02-10T12:03:21.708Z,36.08
2019-02-10T12:08:23.331Z,37.38
2019-02-10T12:13:24.908Z,37.06
2019-02-10T12:18:28.108Z,36.24
2019-02-10T12:23:30.084Z,37.89
2019-02-10T12:28:31.669Z,35.63
2019-02-10T12:33:33.235Z,33.03
2019-02-10T12:38:34.898Z,34.12
2019-02-10T12:43:36.879Z,35.31
2019-02-10T12:48:38.449Z,34.46
2019-02-10T12:53:40.120Z,34.92
2019-02-10T12:58:42.784Z,35.64
2019-02-10T13:03:44.401Z,36.44
2019-02-10T13:08:46.021Z,37.07
2019-02-10T13:13:47.652Z,33.45
2019-02-10T13:18:49.221Z,34.21
2019-02-10T13:23:50.834Z,33.95
2019-02-10T13:28:52.408Z,33.16
2019-02-10T13:33:54.382Z,33.40
2019-02-10T13:38:56.027Z,34.88
2019-02-10T13:43:57.596Z,36.38
2019-02-10T13:49:01.111Z,35.75
2019-02-10T13:54:02.815Z,36.04
2019-02-10T13:59:04.373Z,35.60
2019-02-10T14:04:05.963Z,36.57
2019-02-10T14:09:09.531Z,35.92
2019-02-10T14:14:11.722Z,36.25
2019-02-10T14:19:13.288Z,37.01
2019-02-10T14:24:14.847Z,37.31
2019-02-10T14:29:16.473Z,37.22
2019-02-10T14:34:18.038Z,38.26
2019-02-10T14:39:19.598Z,38.10
2019-02-10T14:44:21.190Z,38.34
2019-02-10T14:49:22.756Z,36.24
2019-02-10T14:54:28.050Z,38.17
2019-02-10T14:59:30.074Z,38.09
2019-02-10T15:04:32.552Z,38.05
2019-02-10T15:09:34.205Z,39.73
2019-02-10T15:14:35.773Z,41.06
2019-02-10T15:19:37.343Z,40.26
2019-02-10T15:24:38.983Z,41.23
2019-02-10T15:29:40.557Z,42.92
2019-02-10T15:34:42.342Z,43.54
2019-02-10T15:39:43.913Z,42.86
2019-02-10T15:44:45.802Z,43.88
2019-02-10T15:49:47.466Z,44.77
2019-02-10T15:54:49.025Z,44.61
2019-02-10T15:59:50.700Z,44.21
2019-02-10T16:04:52.442Z,43.99
2019-02-10T16:09:54.136Z,44.45
2019-02-10T16:14:55.705Z,44.86
2019-02-10T16:19:57.268Z,45.02
2019-02-10T16:24:58.833Z,45.14
2019-02-10T16:30:00.434Z,45.71
2019-02-10T16:35:03.304Z,46.01
2019-02-10T16:40:13.034Z,47.26
2019-02-10T16:45:15.697Z,47.33
2019-02-10T16:50:17.314Z,48.01
2019-02-10T16:55:20.205Z,48.02
2019-02-10T17:00:22.132Z,48.58
2019-02-10T17:05:23.801Z,49.17
2019-02-10T17:10:25.832Z,48.74
2019-02-10T17:15:27.896Z,48.87
2019-02-10T17:20:29.527Z,49.56
2019-02-10T17:25:31.124Z,49.13
2019-02-10T17:30:33.945Z,49.37
2019-02-10T17:35:35.549Z,49.38
2019-02-10T17:40:45.856Z,49.03
2019-02-10T17:45:47.564Z,48.78
2019-02-10T17:50:49.602Z,49.31
2019-02-10T17:55:51.603Z,50.08
2019-02-10T18:00:53.538Z,49.38
2019-02-10T18:05:56.429Z,50.03
2019-02-10T18:10:58.442Z,50.25
2019-02-10T18:16:02.150Z,50.66
2019-02-10T18:21:05.810Z,50.97
2019-02-10T18:26:07.387Z,50.87
2019-02-10T18:31:16.849Z,51.50
2019-02-10T18:36:18.484Z,52.03
2019-02-10T18:41:26.146Z,52.32
2019-02-10T18:46:29.714Z,53.13
2019-02-10T18:51:49.625Z,52.53
2019-02-10T18:57:01.393Z,52.53
2019-02-10T19:02:10.982Z,53.01
2019-02-10T19:07:31.111Z,52.83
2019-02-10T19:12:34.734Z,53.42
2019-02-10T19:17:40.829Z,53.67
2019-02-10T19:22:53.088Z,53.74
2019-02-10T19:28:00.707Z,53.85
2019-02-10T19:33:04.182Z,53.71
2019-02-10T19:38:07.658Z,54.48
2019-02-10T19:43:15.320Z,54.75
2019-02-10T19:48:18.842Z,55.29
2019-02-10T19:53:34.308Z,55.45
2019-02-10T19:58:37.791Z,55.64
2019-02-10T20:03:44.155Z,55.93
2019-02-10T20:08:50.308Z,56.02
2019-02-10T20:14:02.988Z,55.97
2019-02-10T20:19:18.556Z,56.21
2019-02-10T20:24:22.095Z,55.91
2019-02-10T20:29:31.465Z,55.79
2019-02-10T20:34:43.926Z,55.87
2019-02-10T20:39:47.392Z,55.93
2019-02-10T20:45:03.551Z,56.27
2019-02-10T20:50:26.756Z,56.33
2019-02-10T20:55:33.218Z,56.27
2019-02-10T21:00:39.469Z,56.43
2019-02-10T21:05:48.679Z,56.19
2019-02-10T21:10:59.380Z,56.31
2019-02-10T21:16:02.923Z,56.14
2019-02-10T21:21:22.972Z,55.66
2019-02-10T21:26:26.472Z,55.55
2019-02-10T21:31:35.994Z,55.70
2019-02-10T21:36:39.462Z,55.90
2019-02-10T21:42:01.419Z,55.91
2019-02-10T21:47:04.885Z,56.56
2019-02-10T21:52:06.458Z,56.58
2019-02-10T21:57:08.225Z,57.43
2019-02-10T22:02:09.835Z,57.51
2019-02-10T22:07:11.386Z,57.52
2019-02-10T22:12:12.941Z,58.26
2019-02-10T22:17:14.677Z,57.91
2019-02-10T22:22:16.244Z,58.46
2019-02-10T22:27:17.998Z,58.96
2019-02-10T22:32:19.793Z,58.93
2019-02-10T22:37:21.445Z,59.41
2019-02-10T22:42:23.001Z,60.10
2019-02-10T22:47:24.553Z,62.61
2019-02-10T22:52:26.120Z,64.08
2019-02-10T22:57:27.742Z,65.01
2019-02-10T23:02:29.532Z,65.23
2019-02-10T23:07:31.107Z,65.54
2019-02-10T23:12:32.735Z,65.35
2019-02-10T23:17:34.375Z,65.49
2019-02-10T23:22:35.937Z,66.92
2019-02-10T23:27:37.615Z,67.21
2019-02-10T23:32:39.187Z,68.35
2019-02-10T23:37:40.752Z,68.34
2019-02-10T23:42:42.355Z,67.96
2019-02-10T23:47:43.924Z,67.59
2019-02-10T23:52:45.492Z,67.68
2019-02-10T23:57:47.149Z,67.06
